createdAt,value
2018-06-24T00:02:05.556Z,101664.02
2018-06-24T00:05:10.299Z,101662.84
2018-06-24T00:08:14.645Z,101663.22
2018-06-24T00:11:19.165Z,101668.38
2018-06-24T00:14:23.550Z,101671.97
2018-06-24T00:17:27.885Z,101676.39
2018-06-24T00:20:32.177Z,101673.77
2018-06-24T00:23:36.554Z,101672.48
2018-06-24T00:26:41.290Z,101667.14
2018-06-24T00:29:45.671Z,101651.92
2018-06-24T00:32:50.070Z,101658.44
2018-06-24T00:35:54.496Z,101655.09
2018-06-24T00:38:58.843Z,101657.38
2018-06-24T00:42:03.271Z,101653.91
2018-06-24T00:45:07.731Z,101654.78
2018-06-24T00:48:12.133Z,101662.05
2018-06-24T00:51:16.427Z,101650.63
2018-06-24T00:54:20.765Z,101646.72
2018-06-24T00:57:25.165Z,101649.56
2018-06-24T01:00:29.445Z,101650.42
2018-06-24T01:03:33.802Z,101649.94
2018-06-24T01:06:38.307Z,101648.95
2018-06-24T01:09:42.641Z,101650.73
2018-06-24T01:12:47.221Z,101653.41
2018-06-24T01:15:51.599Z,101655.52
2018-06-24T01:18:55.999Z,101656.84
2018-06-24T01:22:00.364Z,101649.38
2018-06-24T01:25:05.009Z,101647.57
2018-06-24T01:28:09.865Z,101649.18
2018-06-24T01:31:14.220Z,101647.37
2018-06-24T01:34:18.752Z,101644.27
2018-06-24T01:37:23.272Z,101638.13
2018-06-24T01:40:27.609Z,101640.31
2018-06-24T01:43:32.040Z,101633.85
2018-06-24T01:46:36.471Z,101631.24
2018-06-24T01:49:40.830Z,101628.69
2018-06-24T01:52:45.385Z,101629.20
2018-06-24T01:55:49.728Z,101620.02
2018-06-24T01:58:54.203Z,101624.48
2018-06-24T02:01:58.666Z,101618.84
2018-06-24T02:05:03.116Z,101617.97
2018-06-24T02:08:07.621Z,101617.05
2018-06-24T02:11:12.065Z,101614.88
2018-06-24T02:14:16.454Z,101613.64
2018-06-24T02:17:20.995Z,101605.81
2018-06-24T02:20:25.328Z,101609.65
2018-06-24T02:23:29.653Z,101606.61
2018-06-24T02:26:34.150Z,101604.45
2018-06-24T02:29:38.721Z,101600.98
2018-06-24T02:32:43.990Z,101601.35
2018-06-24T02:35:48.358Z,101598.23
2018-06-24T02:38:53.189Z,101608.28
2018-06-24T02:41:57.601Z,101599.14
2018-06-24T02:45:02.086Z,101600.89
2018-06-24T02:48:06.755Z,101598.73
2018-06-24T02:51:11.628Z,101590.78
2018-06-24T02:54:16.135Z,101589.03
2018-06-24T02:57:20.750Z,101589.48
2018-06-24T03:00:25.384Z,101592.20
2018-06-24T03:03:29.877Z,101587.30
2018-06-24T03:06:34.205Z,101586.37
2018-06-24T03:09:38.541Z,101593.38
2018-06-24T03:12:42.863Z,101593.81
2018-06-24T03:15:47.177Z,101589.41
2018-06-24T03:18:51.478Z,101594.48
2018-06-24T03:21:55.909Z,101597.04
2018-06-24T03:25:00.258Z,101594.48
2018-06-24T03:28:04.935Z,101584.64
2018-06-24T03:31:09.141Z,101586.88
2018-06-24T03:34:13.425Z,101581.11
2018-06-24T03:37:17.848Z,101580.36
2018-06-24T03:40:22.293Z,101569.89
2018-06-24T03:43:26.828Z,101575.59
2018-06-24T03:46:31.166Z,101578.30
2018-06-24T03:49:35.485Z,101579.50
2018-06-24T03:52:39.923Z,101577.88
2018-06-24T03:55:44.348Z,101577.09
2018-06-24T03:58:48.724Z,101574.80
2018-06-24T04:01:53.163Z,101588.31
2018-06-24T04:04:57.486Z,101587.56
2018-06-24T04:08:01.779Z,101592.34
2018-06-24T04:11:06.102Z,101584.10
2018-06-24T04:14:10.574Z,101587.56
2018-06-24T04:17:15.006Z,101584.96
2018-06-24T04:20:19.376Z,101586.70
2018-06-24T04:23:23.657Z,101585.20
2018-06-24T04:26:28.010Z,101577.88
2018-06-24T04:29:32.335Z,101579.58
2018-06-24T04:32:36.673Z,101581.88
2018-06-24T04:35:41.062Z,101579.81
2018-06-24T04:38:45.377Z,101577.76
2018-06-24T04:41:49.676Z,101576.14
2018-06-24T04:44:53.997Z,101577.64
2018-06-24T04:47:58.340Z,101575.15
2018-06-24T04:51:02.674Z,101582.70
2018-06-24T04:54:06.988Z,101582.77
2018-06-24T04:57:11.352Z,101581.40
2018-06-24T05:00:15.758Z,101575.50
2018-06-24T05:03:20.211Z,101584.43
2018-06-24T05:06:25.263Z,101584.22
2018-06-24T05:09:29.945Z,101585.14
2018-06-24T05:12:34.256Z,101589.98
2018-06-24T05:15:38.556Z,101599.55
2018-06-24T05:18:42.980Z,101600.47
2018-06-24T05:21:47.400Z,101592.64
2018-06-24T05:24:51.776Z,101593.23
2018-06-24T05:27:56.133Z,101603.23
2018-06-24T05:31:00.508Z,101602.75
2018-06-24T05:34:05.022Z,101600.52
2018-06-24T05:37:09.418Z,101589.70
2018-06-24T05:40:13.857Z,101599.53
2018-06-24T05:43:18.165Z,101600.23
2018-06-24T05:46:22.477Z,101593.66
2018-06-24T05:49:26.840Z,101601.62
2018-06-24T05:52:31.230Z,101591.52
2018-06-24T05:55:35.637Z,101592.50
2018-06-24T05:58:40.130Z,101592.89
2018-06-24T06:01:44.481Z,101583.11
2018-06-24T06:04:48.639Z,101585.78
2018-06-24T06:07:53.069Z,101580.03
2018-06-24T06:10:57.391Z,101580.62
2018-06-24T06:14:01.675Z,101582.08
2018-06-24T06:17:06.013Z,101575.31
2018-06-24T06:20:10.856Z,101571.50
2018-06-24T06:23:15.294Z,101576.39
2018-06-24T06:26:19.569Z,101578.28
2018-06-24T06:29:23.936Z,101576.61
2018-06-24T06:32:28.473Z,101580.70
2018-06-24T06:35:32.877Z,101584.39
2018-06-24T06:38:37.269Z,101591.05
2018-06-24T06:41:41.685Z,101583.81
2018-06-24T06:44:46.056Z,101576.84
2018-06-24T06:47:50.383Z,101573.61
2018-06-24T06:50:54.788Z,101571.48
2018-06-24T06:53:59.420Z,101581.88
2018-06-24T06:57:03.779Z,101586.77
2018-06-24T07:00:08.367Z,101585.51
2018-06-24T07:03:12.838Z,101590.73
2018-06-24T07:06:16.947Z,101587.72
2018-06-24T07:09:21.509Z,101587.30
2018-06-24T07:12:25.898Z,101592.26
2018-06-24T07:15:30.346Z,101587.05
2018-06-24T07:18:34.845Z,101594.36
2018-06-24T07:21:39.203Z,101589.97
2018-06-24T07:24:43.545Z,101589.02
2018-06-24T07:27:47.920Z,101582.00
2018-06-24T07:30:52.300Z,101587.18
2018-06-24T07:33:56.604Z,101580.86
2018-06-24T07:37:01.104Z,101579.68
2018-06-24T07:40:05.524Z,101576.08
2018-06-24T07:43:12.136Z,101568.84
2018-06-24T07:46:16.490Z,101564.66
2018-06-24T07:49:20.850Z,101563.19
2018-06-24T07:52:25.280Z,101564.56
2018-06-24T07:55:30.122Z,101563.44
2018-06-24T07:58:34.513Z,101554.30
2018-06-24T08:01:38.976Z,101557.14
2018-06-24T08:04:43.330Z,101551.65
2018-06-24T08:07:47.657Z,101552.88
2018-06-24T08:10:52.114Z,101556.59
2018-06-24T08:13:56.424Z,101552.80
2018-06-24T08:17:01.043Z,101558.80
2018-06-24T08:20:05.519Z,101558.92
2018-06-24T08:23:09.927Z,101561.75
2018-06-24T08:26:14.262Z,101567.16
2018-06-24T08:29:18.750Z,101568.89
2018-06-24T08:32:23.163Z,101568.11
2018-06-24T08:35:27.578Z,101573.97
2018-06-24T08:38:31.931Z,101570.76
2018-06-24T08:41:36.393Z,101573.18
2018-06-24T08:44:40.759Z,101574.47
2018-06-24T08:47:45.229Z,101574.10
2018-06-24T08:50:49.522Z,101580.97
2018-06-24T08:53:53.828Z,101589.30
2018-06-24T08:56:58.481Z,101583.34
2018-06-24T09:00:02.803Z,101584.22
2018-06-24T09:03:07.199Z,101586.56
2018-06-24T09:06:11.467Z,101570.27
2018-06-24T09:09:15.816Z,101578.05
2018-06-24T09:12:20.200Z,101586.36
2018-06-24T09:15:24.444Z,101590.16
2018-06-24T09:18:28.815Z,101591.02
2018-06-24T09:21:33.260Z,101596.00
2018-06-24T09:24:37.649Z,101591.14
2018-06-24T09:27:42.028Z,101591.41
2018-06-24T09:30:46.438Z,101597.52
2018-06-24T09:33:50.848Z,101605.26
2018-06-24T09:36:55.248Z,101597.58
2018-06-24T09:39:59.570Z,101598.66
2018-06-24T09:43:04.005Z,101598.59
2018-06-24T09:46:08.305Z,101595.26
2018-06-24T09:49:12.759Z,101605.98
2018-06-24T09:52:17.107Z,101605.59
2018-06-24T09:55:21.493Z,101608.97
2018-06-24T09:58:25.650Z,101612.18
2018-06-24T10:01:30.087Z,101615.13
2018-06-24T10:04:34.372Z,101615.44
2018-06-24T10:07:38.787Z,101611.47
2018-06-24T10:10:43.086Z,101609.29
2018-06-24T10:13:47.416Z,101611.30
2018-06-24T10:16:51.787Z,101615.05
2018-06-24T10:19:56.244Z,101618.11
2018-06-24T10:23:00.595Z,101616.61
2018-06-24T10:26:04.964Z,101616.07
2018-06-24T10:29:09.286Z,101622.28
2018-06-24T10:32:13.612Z,101621.16
2018-06-24T10:35:17.915Z,101619.16
2018-06-24T10:38:22.312Z,101614.36
2018-06-24T10:41:26.634Z,101610.13
2018-06-24T10:44:31.058Z,101612.59
2018-06-24T10:47:35.493Z,101619.66
2018-06-24T10:50:40.319Z,101609.61
2018-06-24T10:53:44.729Z,101614.02
2018-06-24T10:56:49.070Z,101612.34
2018-06-24T10:59:53.445Z,101608.55
2018-06-24T11:02:57.800Z,101604.28
2018-06-24T11:06:02.154Z,101616.55
2018-06-24T11:09:09.848Z,101601.23
2018-06-24T11:12:14.170Z,101610.02
2018-06-24T11:15:18.559Z,101613.17
2018-06-24T11:18:22.908Z,101608.38
2018-06-24T11:21:27.371Z,101607.11
2018-06-24T11:24:31.893Z,101602.44
2018-06-24T11:27:36.336Z,101614.23
2018-06-24T11:30:40.601Z,101605.53
2018-06-24T11:33:45.041Z,101612.13
2018-06-24T11:36:49.510Z,101614.16
2018-06-24T11:39:54.009Z,101605.95
2018-06-24T11:42:58.694Z,101599.70
2018-06-24T11:46:03.174Z,101609.09
2018-06-24T11:49:07.545Z,101603.94
2018-06-24T11:52:12.738Z,101603.95
2018-06-24T11:55:17.062Z,101600.53
2018-06-24T11:58:21.389Z,101602.36
2018-06-24T12:01:25.754Z,101603.67
2018-06-24T12:04:30.083Z,101599.73
2018-06-24T12:07:34.499Z,101600.61
2018-06-24T12:10:38.768Z,101606.30
2018-06-24T12:13:43.228Z,101606.41
2018-06-24T12:16:47.842Z,101602.89
2018-06-24T12:19:52.168Z,101598.95
2018-06-24T12:22:56.592Z,101604.61
2018-06-24T12:26:01.363Z,101598.05
2018-06-24T12:29:05.960Z,101588.42
2018-06-24T12:32:11.366Z,101584.47
2018-06-24T12:35:15.666Z,101591.05
2018-06-24T12:38:20.092Z,101586.67
2018-06-24T12:41:24.532Z,101581.39
2018-06-24T12:44:29.050Z,101585.77
2018-06-24T12:47:33.503Z,101587.95
2018-06-24T12:50:38.154Z,101583.14
2018-06-24T12:53:42.598Z,101592.32
2018-06-24T12:56:46.948Z,101590.16
2018-06-24T12:59:51.411Z,101593.64
2018-06-24T13:02:55.683Z,101593.22
2018-06-24T13:06:00.060Z,101584.41
2018-06-24T13:09:06.425Z,101587.86
2018-06-24T13:12:10.772Z,101594.83
2018-06-24T13:15:15.551Z,101589.63
2018-06-24T13:18:20.065Z,101584.38
2018-06-24T13:21:24.368Z,101583.95
2018-06-24T13:24:28.929Z,101585.23
2018-06-24T13:27:33.337Z,101588.36
2018-06-24T13:30:37.747Z,101585.25
2018-06-24T13:33:42.204Z,101587.88
2018-06-24T13:36:46.803Z,101585.30
2018-06-24T13:39:51.350Z,101582.57
2018-06-24T13:42:56.158Z,101584.66
2018-06-24T13:46:00.460Z,101589.91
2018-06-24T13:49:05.423Z,101590.39
2018-06-24T13:52:09.727Z,101595.56
2018-06-24T13:55:14.053Z,101588.52
2018-06-24T13:58:18.398Z,101584.98
2018-06-24T14:01:22.904Z,101589.97
2018-06-24T14:04:27.275Z,101587.58
2018-06-24T14:07:31.849Z,101582.30
2018-06-24T14:10:36.209Z,101589.25
2018-06-24T14:13:40.786Z,101586.98
2018-06-24T14:16:45.066Z,101592.20
2018-06-24T14:19:49.476Z,101590.07
2018-06-24T14:22:54.054Z,101588.33
2018-06-24T14:25:58.509Z,101586.84
2018-06-24T14:29:03.431Z,101585.06
2018-06-24T14:32:07.747Z,101582.49
2018-06-24T14:35:12.079Z,101586.69
2018-06-24T14:38:17.066Z,101585.27
2018-06-24T14:41:21.558Z,101589.72
2018-06-24T14:44:26.304Z,101594.00
2018-06-24T14:47:30.602Z,101593.55
2018-06-24T14:50:35.203Z,101591.75
2018-06-24T14:53:41.050Z,101593.10
2018-06-24T14:56:45.490Z,101589.92
2018-06-24T14:59:50.263Z,101599.64
2018-06-24T15:02:54.905Z,101592.86
2018-06-24T15:06:00.094Z,101590.56
2018-06-24T15:09:06.593Z,101588.72
2018-06-24T15:12:11.276Z,101588.45
2018-06-24T15:15:15.695Z,101590.05
2018-06-24T15:18:19.999Z,101586.67
2018-06-24T15:21:24.439Z,101583.85
2018-06-24T15:24:28.857Z,101584.38
2018-06-24T15:27:33.431Z,101588.19
2018-06-24T15:30:37.827Z,101586.59
2018-06-24T15:33:42.186Z,101584.35
2018-06-24T15:36:47.308Z,101582.70
2018-06-24T15:39:51.752Z,101584.89
2018-06-24T15:42:56.132Z,101586.83
2018-06-24T15:46:00.569Z,101586.53
2018-06-24T15:49:05.032Z,101585.28
2018-06-24T15:52:09.430Z,101583.59
2018-06-24T15:55:13.827Z,101578.02
2018-06-24T15:58:18.370Z,101574.03
2018-06-24T16:01:22.776Z,101586.17
2018-06-24T16:04:27.172Z,101583.14
2018-06-24T16:07:31.552Z,101580.08
2018-06-24T16:10:35.964Z,101574.09
2018-06-24T16:13:40.475Z,101581.99
2018-06-24T16:16:44.827Z,101574.95
2018-06-24T16:19:49.284Z,101579.45
2018-06-24T16:22:53.631Z,101580.38
2018-06-24T16:25:58.129Z,101579.60
2018-06-24T16:29:02.506Z,101576.98
2018-06-24T16:32:06.954Z,101575.67
2018-06-24T16:35:11.435Z,101571.71
2018-06-24T16:38:15.762Z,101569.09
2018-06-24T16:41:20.500Z,101568.22
2018-06-24T16:44:24.921Z,101565.16
2018-06-24T16:47:29.307Z,101567.81
2018-06-24T16:50:34.020Z,101569.98
2018-06-24T16:53:38.409Z,101572.64
2018-06-24T16:56:42.841Z,101571.32
2018-06-24T16:59:47.310Z,101565.19
2018-06-24T17:02:51.748Z,101561.66
2018-06-24T17:05:56.302Z,101562.13
2018-06-24T17:09:00.592Z,101559.06
2018-06-24T17:12:04.970Z,101557.73
2018-06-24T17:15:09.357Z,101562.98
2018-06-24T17:18:13.680Z,101557.27
2018-06-24T17:21:18.355Z,101560.30
2018-06-24T17:24:23.007Z,101555.03
2018-06-24T17:27:27.489Z,101561.23
2018-06-24T17:30:32.400Z,101562.47
2018-06-24T17:33:36.820Z,101558.47
2018-06-24T17:36:41.548Z,101554.97
2018-06-24T17:39:45.868Z,101561.50
2018-06-24T17:42:50.217Z,101551.83
2018-06-24T17:45:55.013Z,101562.74
2018-06-24T17:48:59.335Z,101557.44
2018-06-24T17:52:03.720Z,101560.93
2018-06-24T17:55:08.135Z,101561.36
2018-06-24T17:58:12.683Z,101561.30
2018-06-24T18:01:17.032Z,101556.48
2018-06-24T18:04:21.615Z,101560.84
2018-06-24T18:07:25.968Z,101561.65
2018-06-24T18:10:30.405Z,101564.23
2018-06-24T18:13:35.087Z,101563.78
2018-06-24T18:16:39.410Z,101560.18
2018-06-24T18:19:43.988Z,101563.16
2018-06-24T18:22:48.446Z,101565.81
2018-06-24T18:25:52.764Z,101566.25
2018-06-24T18:28:57.318Z,101573.27
2018-06-24T18:32:01.706Z,101575.89
2018-06-24T18:35:06.091Z,101579.84
2018-06-24T18:38:10.457Z,101577.19
2018-06-24T18:41:14.862Z,101571.83
2018-06-24T18:44:19.310Z,101573.05
2018-06-24T18:47:23.628Z,101575.27
2018-06-24T18:50:28.123Z,101578.63
2018-06-24T18:53:32.581Z,101579.44
2018-06-24T18:56:37.126Z,101579.05
2018-06-24T18:59:41.477Z,101581.59
2018-06-24T19:02:46.080Z,101586.84
2018-06-24T19:05:51.518Z,101585.05
2018-06-24T19:08:55.879Z,101590.21
2018-06-24T19:12:00.031Z,101592.81
2018-06-24T19:15:04.459Z,101598.87
2018-06-24T19:18:09.247Z,101597.45
2018-06-24T19:21:13.627Z,101596.46
2018-06-24T19:24:17.996Z,101602.95
2018-06-24T19:27:22.352Z,101602.02
2018-06-24T19:30:26.790Z,101611.99
2018-06-24T19:33:31.190Z,101616.73
2018-06-24T19:36:35.624Z,101611.88
2018-06-24T19:39:40.022Z,101614.42
2018-06-24T19:42:44.361Z,101616.07
2018-06-24T19:45:48.665Z,101617.81
2018-06-24T19:48:53.094Z,101613.79
2018-06-24T19:51:57.542Z,101617.69
2018-06-24T19:55:01.935Z,101620.77
2018-06-24T19:58:06.401Z,101627.25
2018-06-24T20:01:10.774Z,101626.23
2018-06-24T20:04:15.197Z,101629.31
2018-06-24T20:07:19.662Z,101625.83
2018-06-24T20:10:24.084Z,101640.59
2018-06-24T20:13:28.614Z,101632.19
2018-06-24T20:16:33.059Z,101631.23
2018-06-24T20:19:37.539Z,101630.22
2018-06-24T20:22:41.858Z,101633.66
2018-06-24T20:25:46.266Z,101630.05
2018-06-24T20:28:50.566Z,101630.77
2018-06-24T20:31:55.106Z,101639.80
2018-06-24T20:34:59.436Z,101640.94
2018-06-24T20:38:03.803Z,101647.33
2018-06-24T20:41:08.221Z,101644.11
2018-06-24T20:44:12.619Z,101644.80
2018-06-24T20:47:16.913Z,101649.06
2018-06-24T20:50:21.332Z,101642.04
2018-06-24T20:53:25.717Z,101647.08
2018-06-24T20:56:30.121Z,101640.89
2018-06-24T20:59:34.474Z,101651.23
2018-06-24T21:02:39.003Z,101649.88
2018-06-24T21:05:43.527Z,101645.42
2018-06-24T21:08:47.904Z,101650.06
2018-06-24T21:11:52.240Z,101652.62
2018-06-24T21:14:56.676Z,101656.48
2018-06-24T21:18:01.066Z,101656.48
2018-06-24T21:21:05.506Z,101656.81
2018-06-24T21:24:09.934Z,101657.14
2018-06-24T21:27:14.242Z,101660.95
2018-06-24T21:30:18.562Z,101656.50
2018-06-24T21:33:22.897Z,101660.79
2018-06-24T21:36:27.310Z,101661.12
2018-06-24T21:39:31.747Z,101664.45
2018-06-24T21:42:36.141Z,101669.12
2018-06-24T21:45:40.429Z,101666.47
2018-06-24T21:48:44.743Z,101669.02
2018-06-24T21:51:49.093Z,101671.63
2018-06-24T21:54:53.558Z,101669.02
2018-06-24T21:57:57.933Z,101667.66
2018-06-24T22:01:02.297Z,101665.92
2018-06-24T22:04:06.651Z,101664.50
2018-06-24T22:07:11.037Z,101668.42
2018-06-24T22:10:15.302Z,101674.11
2018-06-24T22:13:19.690Z,101667.92
2018-06-24T22:16:24.080Z,101667.43
2018-06-24T22:19:28.441Z,101666.12
2018-06-24T22:22:32.827Z,101664.76
2018-06-24T22:25:37.116Z,101666.44
2018-06-24T22:28:41.609Z,101661.66
2018-06-24T22:31:45.945Z,101664.70
2018-06-24T22:34:50.305Z,101662.02
2018-06-24T22:37:54.649Z,101661.10
2018-06-24T22:40:58.948Z,101655.34
2018-06-24T22:44:04.347Z,101657.88
2018-06-24T22:47:09.622Z,101664.45
2018-06-24T22:50:14.175Z,101663.53
2018-06-24T22:53:18.457Z,101667.49
2018-06-24T22:56:22.909Z,101663.96
2018-06-24T22:59:44.370Z,101660.86
2018-06-24T23:02:48.872Z,101662.48
2018-06-24T23:05:53.285Z,101662.05
2018-06-24T23:08:58.240Z,101664.34
2018-06-24T23:12:02.539Z,101666.88
2018-06-24T23:15:08.259Z,101665.53
2018-06-24T23:18:12.532Z,101666.41
2018-06-24T23:21:16.940Z,101652.92
2018-06-24T23:24:21.239Z,101650.73
2018-06-24T23:27:25.546Z,101663.40
2018-06-24T23:30:29.904Z,101665.53
2018-06-24T23:33:34.221Z,101668.94
2018-06-24T23:36:38.548Z,101668.12
2018-06-24T23:39:42.982Z,101670.31
2018-06-24T23:42:47.261Z,101668.68
2018-06-24T23:45:51.667Z,101660.87
2018-06-24T23:48:55.948Z,101667.70
2018-06-24T23:52:00.406Z,101665.91
2018-06-24T23:55:04.898Z,101666.83
2018-06-24T23:58:09.162Z,101671.29
